TAF KTCL
KTCL 072337Z 0800/0824 VRB03KT P6SM OVC015 FM080300 00000KT P6SM VCSH OVC015 FM080900 VRB04KT P6SM OVC008 PROB30 0809/0812 4SM -SHRA BR OVC005 FM081600 35005KT P6SM BKN016 FM081900 01005KT P6SM FEW050=
METAR KTCL
WC KTCL
WS KTCL
WV KTCL